createdAt,value
2019-05-01T00:00:15.946Z,0.00
2019-05-01T00:01:08.505Z,0.00
2019-05-01T00:02:07.489Z,0.00
2019-05-01T00:03:07.485Z,0.00
2019-05-01T00:04:07.497Z,0.00
2019-05-01T00:05:07.457Z,0.00
2019-05-01T00:06:07.444Z,0.00
2019-05-01T00:08:08.433Z,0.00
2019-05-01T00:09:07.461Z,0.00
2019-05-01T00:10:07.404Z,0.00
2019-05-01T00:11:07.392Z,0.00
2019-05-01T00:12:07.387Z,0.00
2019-05-01T00:13:07.380Z,0.00
2019-05-01T00:14:07.386Z,0.00
2019-05-01T00:15:07.357Z,0.00
2019-05-01T00:16:07.337Z,0.00
2019-05-01T00:18:08.539Z,0.00
2019-05-01T00:19:07.493Z,0.00
2019-05-01T00:20:07.493Z,0.00
2019-05-01T00:21:07.443Z,0.00
2019-05-01T00:22:07.451Z,0.00
2019-05-01T00:23:07.453Z,0.00
2019-05-01T00:24:07.279Z,0.00
2019-05-01T00:25:07.231Z,0.00
2019-05-01T00:26:07.218Z,0.00
2019-05-01T00:27:07.205Z,0.00
2019-05-01T00:28:07.197Z,0.00
2019-05-01T00:29:07.215Z,0.00
2019-05-01T00:30:07.187Z,0.00
2019-05-01T00:31:07.171Z,0.00
2019-05-01T00:32:07.159Z,0.00
2019-05-01T00:33:07.143Z,0.00
2019-05-01T00:34:07.131Z,0.00
2019-05-01T00:35:07.135Z,0.00
2019-05-01T00:36:07.110Z,0.00
2019-05-01T00:37:07.108Z,0.00
2019-05-01T00:38:07.105Z,0.00
2019-05-01T00:39:07.082Z,0.00
2019-05-01T00:40:07.079Z,0.00
2019-05-01T00:41:07.077Z,0.00
2019-05-01T00:42:07.051Z,0.00
2019-05-01T00:43:07.038Z,0.00
2019-05-01T00:44:07.020Z,0.00
2019-05-01T00:45:07.030Z,0.00
2019-05-01T00:46:07.005Z,0.00
2019-05-01T00:47:07.001Z,0.00
2019-05-01T00:48:06.983Z,0.00
2019-05-01T00:49:06.973Z,0.00
2019-05-01T00:50:06.978Z,0.00
2019-05-01T00:51:06.946Z,0.00
2019-05-01T00:52:06.934Z,0.00
2019-05-01T00:53:06.931Z,0.00
2019-05-01T00:54:06.915Z,0.00
2019-05-01T00:55:06.934Z,0.00
2019-05-01T00:56:06.895Z,0.00
2019-05-01T00:57:06.893Z,0.00
2019-05-01T00:58:06.885Z,0.00
2019-05-01T00:59:06.866Z,0.00
2019-05-01T01:00:06.923Z,0.00
2019-05-01T01:01:06.836Z,0.00
2019-05-01T01:02:06.832Z,0.00
2019-05-01T01:03:06.816Z,0.00
2019-05-01T01:04:06.806Z,0.00
2019-05-01T01:05:06.793Z,0.00
2019-05-01T01:06:06.818Z,0.00
2019-05-01T01:07:06.792Z,0.00
2019-05-01T01:08:06.769Z,0.00
2019-05-01T01:09:06.764Z,0.00
2019-05-01T01:10:06.753Z,0.00
2019-05-01T01:11:06.744Z,0.00
2019-05-01T01:12:06.728Z,0.00
2019-05-01T01:13:06.705Z,0.00
2019-05-01T01:14:06.698Z,0.00
2019-05-01T01:15:06.686Z,0.00
2019-05-01T01:16:06.696Z,0.00
2019-05-01T01:17:06.680Z,0.00
2019-05-01T01:18:06.649Z,0.00
2019-05-01T01:19:06.643Z,0.00
2019-05-01T01:20:06.630Z,0.00
2019-05-01T01:21:06.638Z,0.00
2019-05-01T01:22:06.614Z,0.00
2019-05-01T01:23:06.637Z,0.00
2019-05-01T01:24:06.588Z,0.00
2019-05-01T01:25:06.577Z,0.00
2019-05-01T01:26:06.587Z,0.00
2019-05-01T01:27:06.563Z,0.00
2019-05-01T01:28:06.543Z,0.00
2019-05-01T01:29:06.543Z,0.00
2019-05-01T01:30:07.444Z,0.00
2019-05-01T01:31:06.527Z,0.00
2019-05-01T01:32:06.497Z,0.00
2019-05-01T01:33:06.490Z,0.00
2019-05-01T01:34:06.481Z,0.00
2019-05-01T01:35:06.477Z,0.00
2019-05-01T01:36:06.485Z,0.00
2019-05-01T01:37:06.442Z,0.00
2019-05-01T01:38:06.432Z,0.00
2019-05-01T01:39:06.426Z,0.00
2019-05-01T01:40:06.414Z,0.00
2019-05-01T01:41:06.422Z,0.00
2019-05-01T01:42:06.393Z,0.00
2019-05-01T01:43:06.380Z,0.00
2019-05-01T01:44:06.381Z,0.00
2019-05-01T01:45:06.365Z,0.00
2019-05-01T01:46:06.366Z,0.00
2019-05-01T01:47:06.337Z,0.00
2019-05-01T01:48:06.328Z,0.00
2019-05-01T01:49:06.314Z,0.00
2019-05-01T01:50:06.297Z,0.00
2019-05-01T01:51:06.320Z,0.00
2019-05-01T01:52:06.288Z,0.00
2019-05-01T01:53:06.281Z,0.00
2019-05-01T01:54:06.259Z,0.00
2019-05-01T01:55:06.243Z,0.00
2019-05-01T01:56:06.263Z,0.00
2019-05-01T01:57:06.234Z,0.00
2019-05-01T01:58:06.219Z,0.00
2019-05-01T01:59:06.202Z,0.00
2019-05-01T02:00:06.189Z,0.00
2019-05-01T02:01:09.517Z,0.00
2019-05-01T02:02:06.173Z,0.00
2019-05-01T02:03:06.165Z,0.00
2019-05-01T02:04:06.149Z,0.00
2019-05-01T02:05:06.140Z,0.00
2019-05-01T02:06:06.144Z,0.00
2019-05-01T02:07:06.120Z,0.00
2019-05-01T02:08:08.858Z,0.00
2019-05-01T02:09:06.102Z,0.00
2019-05-01T02:10:06.108Z,0.00
2019-05-01T02:11:06.097Z,0.00
2019-05-01T02:12:06.058Z,0.00
2019-05-01T02:13:06.052Z,0.00
2019-05-01T02:14:06.049Z,0.00
2019-05-01T02:15:06.039Z,0.00
2019-05-01T02:16:06.039Z,0.00
2019-05-01T02:17:06.026Z,0.00
2019-05-01T02:18:05.996Z,0.00
2019-05-01T02:19:05.994Z,0.00
2019-05-01T02:20:05.987Z,0.00
2019-05-01T02:21:05.962Z,0.00
2019-05-01T02:22:05.990Z,0.00
2019-05-01T02:23:05.940Z,0.00
2019-05-01T02:24:05.939Z,0.00
2019-05-01T02:25:05.926Z,0.00
2019-05-01T02:26:05.915Z,0.00
2019-05-01T02:27:05.926Z,0.00
2019-05-01T02:28:06.450Z,0.00
2019-05-01T02:29:05.884Z,0.00
2019-05-01T02:30:05.867Z,0.00
2019-05-01T02:31:05.861Z,0.00
2019-05-01T02:32:05.861Z,0.00
2019-05-01T02:33:05.836Z,0.00
2019-05-01T02:34:05.827Z,0.00
2019-05-01T02:35:05.823Z,0.00
2019-05-01T02:36:05.799Z,0.00
2019-05-01T02:37:05.810Z,0.00
2019-05-01T02:38:05.779Z,0.00
2019-05-01T02:39:05.768Z,0.00
2019-05-01T02:40:05.764Z,0.00
2019-05-01T02:41:05.759Z,0.00
2019-05-01T02:42:05.763Z,0.00
2019-05-01T02:43:05.738Z,0.00
2019-05-01T02:44:05.716Z,0.00
2019-05-01T02:45:05.704Z,0.00
2019-05-01T02:46:05.693Z,0.00
2019-05-01T02:47:05.705Z,0.00
2019-05-01T02:48:05.680Z,0.00
2019-05-01T02:49:05.685Z,0.00
2019-05-01T02:50:05.660Z,0.00
2019-05-01T02:51:05.640Z,0.00
2019-05-01T02:52:05.667Z,0.00
2019-05-01T02:53:05.623Z,0.00
2019-05-01T02:54:05.609Z,0.00
2019-05-01T02:55:05.594Z,0.00
2019-05-01T02:56:05.584Z,0.00
2019-05-01T02:57:05.596Z,0.00
2019-05-01T02:58:05.592Z,0.00
2019-05-01T02:59:05.551Z,0.00
2019-05-01T03:00:05.558Z,0.00
2019-05-01T03:01:05.541Z,0.00
2019-05-01T03:02:05.561Z,0.00
2019-05-01T03:03:05.576Z,0.00
2019-05-01T03:04:05.632Z,0.00
2019-05-01T03:05:05.487Z,0.00
2019-05-01T03:06:05.484Z,0.00
2019-05-01T03:07:05.474Z,0.00
2019-05-01T03:08:05.482Z,0.00
2019-05-01T03:09:05.443Z,0.00
2019-05-01T03:10:09.369Z,0.00
2019-05-01T03:11:05.478Z,0.00
2019-05-01T03:12:05.423Z,0.00
2019-05-01T03:13:05.453Z,0.00
2019-05-01T03:14:05.400Z,0.00
2019-05-01T03:15:05.416Z,0.00
2019-05-01T03:16:05.369Z,0.00
2019-05-01T03:17:05.365Z,0.00
2019-05-01T03:18:05.373Z,0.00
2019-05-01T03:19:05.342Z,0.00
2019-05-01T03:20:05.330Z,0.00
2019-05-01T03:21:05.329Z,0.00
2019-05-01T03:22:05.303Z,0.00
2019-05-01T03:23:05.314Z,0.00
2019-05-01T03:24:05.285Z,0.00
2019-05-01T03:25:05.268Z,0.00
2019-05-01T03:26:05.260Z,0.00
2019-05-01T03:27:05.253Z,0.00
2019-05-01T03:28:05.269Z,0.00
2019-05-01T03:29:05.241Z,0.00
2019-05-01T03:30:05.217Z,0.00
2019-05-01T03:31:05.211Z,0.00
2019-05-01T03:32:17.258Z,0.00
2019-05-01T03:33:06.196Z,0.00
2019-05-01T03:34:05.182Z,0.00
2019-05-01T03:35:05.163Z,0.00
2019-05-01T03:36:05.149Z,0.00
2019-05-01T03:37:05.140Z,0.00
2019-05-01T03:38:05.143Z,5.62
2019-05-01T03:39:05.121Z,5.62
2019-05-01T03:40:05.121Z,5.62
2019-05-01T03:41:05.096Z,5.62
2019-05-01T03:42:05.083Z,5.62
2019-05-01T03:43:05.090Z,5.62
2019-05-01T03:44:05.068Z,5.62
2019-05-01T03:45:05.056Z,5.62
2019-05-01T03:46:05.051Z,5.62
2019-05-01T03:47:05.041Z,5.62
2019-05-01T03:48:05.043Z,5.62
2019-05-01T03:49:05.144Z,5.62
2019-05-01T03:50:04.998Z,5.62
2019-05-01T03:51:04.995Z,5.62
2019-05-01T03:52:04.984Z,5.62
2019-05-01T03:53:04.965Z,11.25
2019-05-01T03:54:04.965Z,11.25
2019-05-01T03:55:04.948Z,11.25
2019-05-01T03:56:04.934Z,11.25
2019-05-01T03:57:04.925Z,11.25
2019-05-01T03:58:04.922Z,11.25
2019-05-01T03:59:04.941Z,11.25
2019-05-01T04:00:04.891Z,11.25
2019-05-01T04:01:04.887Z,11.25
2019-05-01T04:02:04.868Z,11.25
2019-05-01T04:03:04.917Z,11.25
2019-05-01T04:04:04.867Z,16.88
2019-05-01T04:05:04.835Z,16.88
2019-05-01T04:06:04.870Z,11.25
2019-05-01T04:07:04.823Z,11.25
2019-05-01T04:08:04.810Z,11.25
2019-05-01T04:09:04.806Z,11.25
2019-05-01T04:10:04.786Z,11.25
2019-05-01T04:11:04.768Z,11.25
2019-05-01T04:12:04.766Z,11.25
2019-05-01T04:13:04.748Z,16.88
2019-05-01T04:14:04.751Z,16.88
2019-05-01T04:15:04.724Z,16.88
2019-05-01T04:16:04.778Z,22.50
2019-05-01T04:17:04.720Z,22.50
2019-05-01T04:18:04.708Z,22.50
2019-05-01T04:19:04.705Z,22.50
2019-05-01T04:20:04.678Z,22.50
2019-05-01T04:21:04.677Z,22.50
2019-05-01T04:22:04.648Z,22.50
2019-05-01T04:23:04.640Z,22.50
2019-05-01T04:24:04.689Z,28.12
2019-05-01T04:25:04.623Z,33.75
2019-05-01T04:26:04.611Z,39.38
2019-05-01T04:27:04.595Z,45.00
2019-05-01T04:28:04.590Z,45.00
2019-05-01T04:29:04.597Z,50.62
2019-05-01T04:30:04.569Z,50.62
2019-05-01T04:31:04.553Z,50.62
2019-05-01T04:32:04.542Z,50.62
2019-05-01T04:33:04.528Z,45.00
2019-05-01T04:34:04.517Z,45.00
2019-05-01T04:35:04.525Z,45.00
2019-05-01T04:36:04.497Z,45.00
2019-05-01T04:37:04.491Z,50.62
2019-05-01T04:38:04.492Z,50.62
2019-05-01T04:39:04.468Z,56.25
2019-05-01T04:40:04.489Z,61.88
2019-05-01T04:41:04.439Z,67.50
2019-05-01T04:42:04.440Z,73.12
2019-05-01T04:43:04.428Z,78.75
2019-05-01T04:44:04.424Z,84.38
2019-05-01T04:45:04.421Z,84.38
2019-05-01T04:46:04.385Z,84.38
2019-05-01T04:47:04.372Z,84.38
2019-05-01T04:48:04.366Z,84.38
2019-05-01T04:49:04.352Z,84.38
2019-05-01T04:50:04.361Z,90.00
2019-05-01T04:51:04.330Z,90.00
2019-05-01T04:52:04.322Z,90.00
2019-05-01T04:53:04.309Z,84.38
2019-05-01T04:54:04.303Z,84.38
2019-05-01T04:55:04.343Z,84.38
2019-05-01T04:56:04.274Z,84.38
2019-05-01T04:57:04.295Z,95.62
2019-05-01T04:58:04.258Z,101.25
2019-05-01T04:59:04.246Z,106.88
2019-05-01T05:00:04.268Z,106.88
2019-05-01T05:01:04.224Z,101.25
2019-05-01T05:02:04.216Z,101.25
2019-05-01T05:03:05.356Z,106.88
2019-05-01T05:04:04.189Z,112.50
2019-05-01T05:05:04.215Z,112.50
2019-05-01T05:06:04.203Z,118.12
2019-05-01T05:07:04.161Z,123.75
2019-05-01T05:08:04.147Z,129.38
2019-05-01T05:09:04.132Z,135.00
2019-05-01T05:10:04.142Z,140.62
2019-05-01T05:11:04.117Z,146.25
2019-05-01T05:12:04.101Z,140.62
2019-05-01T05:13:04.103Z,140.62
2019-05-01T05:14:04.075Z,135.00
2019-05-01T05:15:04.101Z,135.00
2019-05-01T05:16:04.062Z,135.00
2019-05-01T05:17:04.049Z,135.00
2019-05-01T05:18:04.037Z,140.62
2019-05-01T05:19:04.022Z,146.25
2019-05-01T05:20:04.043Z,140.62
2019-05-01T05:21:04.031Z,140.62
2019-05-01T05:22:03.995Z,146.25
2019-05-01T05:23:03.984Z,146.25
2019-05-01T05:24:03.972Z,146.25
2019-05-01T05:25:03.962Z,151.88
2019-05-01T05:26:03.968Z,163.12
2019-05-01T05:27:03.942Z,168.75
2019-05-01T05:28:03.931Z,180.00
2019-05-01T05:29:03.936Z,180.00
2019-05-01T05:30:03.921Z,180.00
2019-05-01T05:31:03.920Z,174.38
2019-05-01T05:32:03.886Z,180.00
2019-05-01T05:33:03.872Z,185.62
2019-05-01T05:34:03.882Z,196.88
2019-05-01T05:35:03.856Z,208.12
2019-05-01T05:36:03.856Z,208.12
2019-05-01T05:37:03.827Z,208.12
2019-05-01T05:38:03.820Z,213.75
2019-05-01T05:39:03.817Z,213.75
2019-05-01T05:40:03.815Z,225.00
2019-05-01T05:41:03.819Z,247.50
2019-05-01T05:42:03.779Z,275.62
2019-05-01T05:43:03.766Z,286.88
2019-05-01T05:44:03.755Z,292.50
2019-05-01T05:45:03.768Z,298.12
2019-05-01T05:46:03.751Z,298.12
2019-05-01T05:47:03.743Z,298.12
2019-05-01T05:48:03.707Z,298.12
2019-05-01T05:49:03.726Z,303.75
2019-05-01T05:50:03.760Z,298.12
2019-05-01T05:51:03.694Z,303.75
2019-05-01T05:52:03.663Z,303.75
2019-05-01T05:53:03.653Z,303.75
2019-05-01T05:54:03.647Z,292.50
2019-05-01T05:55:03.654Z,275.62
2019-05-01T05:56:03.631Z,264.38
2019-05-01T05:57:03.638Z,247.50
2019-05-01T05:58:03.600Z,236.25
2019-05-01T05:59:03.596Z,230.62
2019-05-01T06:00:03.581Z,225.00
2019-05-01T06:01:03.566Z,208.12
2019-05-01T06:02:03.578Z,196.88
2019-05-01T06:03:03.567Z,196.88
2019-05-01T06:04:03.536Z,196.88
2019-05-01T06:05:03.541Z,208.12
2019-05-01T06:06:03.523Z,196.88
2019-05-01T06:07:03.623Z,196.88
2019-05-01T06:08:03.495Z,191.25
2019-05-01T06:09:03.479Z,185.62
2019-05-01T06:10:03.471Z,180.00
2019-05-01T06:11:03.480Z,191.25
2019-05-01T06:12:04.989Z,208.12
2019-05-01T06:13:04.459Z,225.00
2019-05-01T06:14:03.434Z,241.88
2019-05-01T06:15:06.446Z,247.50
2019-05-01T06:16:03.405Z,253.12
2019-05-01T06:17:03.397Z,247.50
2019-05-01T06:18:04.134Z,241.88
2019-05-01T06:19:03.372Z,213.75
2019-05-01T06:20:03.359Z,196.88
2019-05-01T06:21:03.945Z,185.62
2019-05-01T06:22:05.007Z,180.00
2019-05-01T06:23:04.349Z,185.62
2019-05-01T06:24:06.624Z,185.62
2019-05-01T06:25:03.329Z,196.88
2019-05-01T06:26:03.346Z,219.38
2019-05-01T06:27:03.280Z,225.00
2019-05-01T06:28:03.275Z,236.25
2019-05-01T06:29:03.295Z,264.38
2019-05-01T06:30:06.622Z,292.50
2019-05-01T06:31:04.243Z,343.12
2019-05-01T06:32:03.231Z,382.50
2019-05-01T06:33:04.160Z,393.75
2019-05-01T06:34:04.233Z,393.75
2019-05-01T06:35:04.586Z,399.38
2019-05-01T06:36:03.184Z,433.12
2019-05-01T06:37:03.172Z,455.62
2019-05-01T06:38:03.171Z,450.00
2019-05-01T06:39:06.798Z,438.75
2019-05-01T06:40:04.157Z,444.38
2019-05-01T06:41:03.135Z,461.25
2019-05-01T06:42:03.123Z,455.62
2019-05-01T06:43:03.112Z,455.62
2019-05-01T06:44:04.122Z,433.12
2019-05-01T06:45:03.086Z,427.50
2019-05-01T06:46:03.094Z,421.88
2019-05-01T06:47:04.968Z,348.75
2019-05-01T06:48:03.057Z,320.62
2019-05-01T06:49:03.051Z,253.12
2019-05-01T06:50:05.908Z,225.00
2019-05-01T06:51:03.029Z,208.12
2019-05-01T06:52:03.010Z,196.88
2019-05-01T06:53:04.602Z,191.25
2019-05-01T06:54:02.998Z,196.88
2019-05-01T06:55:02.994Z,196.88
2019-05-01T06:56:02.972Z,196.88
2019-05-01T06:57:02.961Z,225.00
2019-05-01T06:58:02.944Z,225.00
2019-05-01T06:59:02.935Z,236.25
2019-05-01T07:00:07.620Z,241.88
2019-05-01T07:01:03.914Z,236.25
2019-05-01T07:02:02.906Z,253.12
2019-05-01T07:03:05.972Z,258.75
2019-05-01T07:04:04.109Z,275.62
2019-05-01T07:05:02.894Z,309.38
2019-05-01T07:06:13.829Z,331.88
2019-05-01T07:07:06.725Z,354.38
2019-05-01T07:08:02.836Z,371.25
2019-05-01T07:09:07.013Z,376.88
2019-05-01T07:10:03.850Z,376.88
2019-05-01T07:11:02.802Z,399.38
2019-05-01T07:12:02.809Z,421.88
2019-05-01T07:13:04.862Z,438.75
2019-05-01T07:14:02.778Z,393.75
2019-05-01T07:15:02.768Z,421.88
2019-05-01T07:16:03.280Z,523.12
2019-05-01T07:17:02.740Z,545.62
2019-05-01T07:18:02.727Z,523.12
2019-05-01T07:19:05.783Z,483.75
2019-05-01T07:20:02.713Z,444.38
2019-05-01T07:21:02.752Z,438.75
2019-05-01T07:22:06.364Z,438.75
2019-05-01T07:23:02.675Z,421.88
2019-05-01T07:24:02.697Z,433.12
2019-05-01T07:25:03.904Z,410.62
2019-05-01T07:26:02.666Z,376.88
2019-05-01T07:27:03.043Z,326.25
2019-05-01T07:28:02.614Z,298.12
2019-05-01T07:29:06.047Z,275.62
2019-05-01T07:30:03.602Z,264.38
2019-05-01T07:31:05.024Z,253.12
2019-05-01T07:32:06.382Z,247.50
2019-05-01T07:33:02.562Z,247.50
2019-05-01T07:34:02.554Z,247.50
2019-05-01T07:35:03.970Z,253.12
2019-05-01T07:36:02.531Z,253.12
2019-05-01T07:37:02.538Z,258.75
2019-05-01T07:38:03.457Z,281.25
2019-05-01T07:39:02.507Z,315.00
2019-05-01T07:40:02.487Z,320.62
2019-05-01T07:41:03.367Z,326.25
2019-05-01T07:42:02.486Z,337.50
2019-05-01T07:43:02.452Z,331.88
2019-05-01T07:44:02.447Z,331.88
2019-05-01T07:45:03.764Z,348.75
2019-05-01T07:46:03.428Z,382.50
2019-05-01T07:47:02.439Z,399.38
2019-05-01T07:48:05.644Z,438.75
2019-05-01T07:49:02.398Z,478.12
2019-05-01T07:50:02.389Z,562.50
2019-05-01T07:51:07.131Z,635.62
2019-05-01T07:52:03.389Z,669.38
2019-05-01T07:53:02.354Z,618.75
2019-05-01T07:54:04.027Z,579.38
2019-05-01T07:55:02.321Z,523.12
2019-05-01T07:56:02.319Z,596.25
2019-05-01T07:57:03.251Z,624.38
2019-05-01T07:58:02.306Z,613.12
2019-05-01T07:59:02.282Z,646.88
2019-05-01T08:00:03.702Z,607.50
2019-05-01T08:01:02.262Z,540.00
2019-05-01T08:02:02.269Z,534.38
2019-05-01T08:03:02.577Z,461.25
2019-05-01T08:04:02.227Z,405.00
2019-05-01T08:05:04.916Z,343.12
2019-05-01T08:06:03.207Z,326.25
2019-05-01T08:07:02.197Z,326.25
2019-05-01T08:08:02.832Z,337.50
2019-05-01T08:09:02.173Z,354.38
2019-05-01T08:10:02.162Z,382.50
2019-05-01T08:11:05.342Z,438.75
2019-05-01T08:12:03.149Z,495.00
2019-05-01T08:13:02.200Z,450.00
2019-05-01T08:14:07.525Z,472.50
2019-05-01T08:15:03.106Z,489.38
2019-05-01T08:16:06.948Z,528.75
2019-05-01T08:17:03.092Z,590.62
2019-05-01T08:18:02.095Z,517.50
2019-05-01T08:19:04.019Z,466.88
2019-05-01T08:20:02.051Z,405.00
2019-05-01T08:21:02.040Z,489.38
2019-05-01T08:22:03.022Z,495.00
2019-05-01T08:23:02.043Z,506.25
2019-05-01T08:24:02.031Z,495.00
2019-05-01T08:25:01.992Z,511.88
2019-05-01T08:26:03.884Z,556.88
2019-05-01T08:27:02.984Z,540.00
2019-05-01T08:28:01.995Z,635.62
2019-05-01T08:29:03.003Z,618.75
2019-05-01T08:30:01.959Z,624.38
2019-05-01T08:31:01.961Z,556.88
2019-05-01T08:32:03.384Z,579.38
2019-05-01T08:33:01.937Z,562.50
2019-05-01T08:34:01.912Z,680.62
2019-05-01T08:35:02.493Z,646.88
2019-05-01T08:36:01.902Z,714.38
2019-05-01T08:37:01.863Z,725.62
2019-05-01T08:38:01.860Z,624.38
2019-05-01T08:39:04.884Z,680.62
2019-05-01T08:40:02.881Z,466.88
2019-05-01T08:41:01.826Z,405.00
2019-05-01T08:42:03.113Z,376.88
2019-05-01T08:43:01.818Z,376.88
2019-05-01T08:44:01.816Z,399.38
2019-05-01T08:45:05.283Z,427.50
2019-05-01T08:46:02.783Z,495.00
2019-05-01T08:47:01.751Z,450.00
2019-05-01T08:48:01.746Z,433.12
2019-05-01T08:49:01.746Z,444.38
2019-05-01T08:50:01.722Z,365.62
2019-05-01T08:51:01.719Z,393.75
2019-05-01T08:52:04.708Z,410.62
2019-05-01T08:53:02.759Z,421.88
2019-05-01T08:54:01.711Z,427.50
2019-05-01T08:55:04.318Z,427.50
2019-05-01T08:56:02.653Z,410.62
2019-05-01T08:57:01.655Z,410.62
2019-05-01T08:58:01.677Z,450.00
2019-05-01T08:59:01.631Z,433.12
2019-05-01T09:00:01.835Z,438.75
2019-05-01T09:01:01.603Z,455.62
2019-05-01T09:02:09.590Z,438.75
2019-05-01T09:03:08.468Z,450.00
2019-05-01T09:04:12.298Z,489.38
2019-05-01T09:05:02.913Z,556.88
2019-05-01T09:06:01.559Z,652.50
2019-05-01T09:07:01.539Z,523.12
2019-05-01T09:08:01.531Z,433.12
2019-05-01T09:09:03.077Z,410.62
2019-05-01T09:10:02.539Z,427.50
2019-05-01T09:11:02.257Z,399.38
2019-05-01T09:12:01.475Z,455.62
2019-05-01T09:13:01.465Z,438.75
2019-05-01T09:14:01.454Z,393.75
2019-05-01T09:15:01.471Z,410.62
2019-05-01T09:16:01.448Z,455.62
2019-05-01T09:17:01.429Z,427.50
2019-05-01T09:18:01.421Z,455.62
2019-05-01T09:19:01.434Z,450.00
2019-05-01T09:20:01.419Z,466.88
2019-05-01T09:21:01.404Z,483.75
2019-05-01T09:22:01.372Z,506.25
2019-05-01T09:23:01.359Z,523.12
2019-05-01T09:24:01.346Z,635.62
2019-05-01T09:25:01.894Z,669.38
2019-05-01T09:26:01.339Z,652.50
2019-05-01T09:27:01.418Z,573.75
2019-05-01T09:31:17.875Z,416.25
2019-05-01T09:32:18.805Z,511.88
2019-05-01T09:33:17.778Z,495.00
2019-05-01T09:34:19.103Z,511.88
2019-05-01T09:35:19.663Z,466.88
2019-05-01T09:36:17.705Z,472.50
2019-05-01T09:37:17.711Z,427.50
2019-05-01T09:38:17.703Z,455.62
2019-05-01T09:39:17.713Z,461.25
2019-05-01T09:40:17.676Z,483.75
2019-05-01T09:41:17.667Z,472.50
2019-05-01T09:42:22.715Z,478.12
2019-05-01T09:43:18.631Z,483.75
2019-05-01T09:44:17.617Z,489.38
2019-05-01T09:45:17.635Z,495.00
2019-05-01T09:46:17.599Z,517.50
2019-05-01T09:47:18.486Z,523.12
2019-05-01T09:48:17.581Z,528.75
2019-05-01T09:49:18.289Z,540.00
2019-05-01T09:50:17.599Z,573.75
2019-05-01T09:51:17.568Z,596.25
2019-05-01T09:52:18.940Z,635.62
2019-05-01T09:54:28.547Z,675.00
2019-05-01T09:55:28.519Z,646.88
2019-05-01T09:56:28.528Z,618.75
2019-05-01T09:57:29.041Z,630.00
2019-05-01T09:58:28.490Z,680.62
2019-05-01T09:59:28.475Z,703.12
2019-05-01T10:00:28.460Z,765.00
2019-05-01T10:01:31.888Z,798.75
2019-05-01T10:02:28.471Z,821.25
2019-05-01T10:03:28.439Z,691.88
2019-05-01T10:04:30.287Z,708.75
2019-05-01T10:05:29.330Z,742.50
2019-05-01T10:06:28.396Z,770.62
2019-05-01T10:07:28.831Z,714.38
2019-05-01T10:08:28.508Z,714.38
2019-05-01T10:09:28.369Z,731.25
2019-05-01T10:10:29.230Z,770.62
2019-05-01T10:11:28.470Z,765.00
2019-05-01T10:12:28.372Z,759.38
2019-05-01T10:13:28.322Z,810.00
2019-05-01T10:14:31.607Z,781.88
2019-05-01T10:15:29.322Z,691.88
2019-05-01T10:16:28.294Z,680.62
2019-05-01T10:17:28.296Z,618.75
2019-05-01T10:18:28.533Z,573.75
2019-05-01T10:19:28.261Z,590.62
2019-05-01T10:20:28.250Z,663.75
2019-05-01T10:21:28.939Z,663.75
2019-05-01T10:22:28.242Z,736.88
2019-05-01T10:23:28.240Z,765.00
2019-05-01T10:24:32.245Z,776.25
2019-05-01T10:25:29.206Z,652.50
2019-05-01T10:26:28.192Z,613.12
2019-05-01T10:27:30.876Z,748.12
2019-05-01T10:28:29.200Z,804.38
2019-05-01T10:29:28.155Z,804.38
2019-05-01T10:30:31.662Z,759.38
2019-05-01T10:31:29.138Z,765.00
2019-05-01T10:32:28.127Z,815.62
2019-05-01T10:33:29.000Z,810.00
2019-05-01T10:34:28.116Z,849.38
2019-05-01T10:35:28.085Z,855.00
2019-05-01T10:36:28.093Z,911.25
2019-05-01T10:37:33.122Z,911.25
2019-05-01T10:38:29.055Z,866.25
2019-05-01T10:39:30.188Z,933.75
2019-05-01T10:40:32.363Z,1012.50
2019-05-01T10:41:29.025Z,1023.75
2019-05-01T10:42:28.009Z,978.75
2019-05-01T10:43:28.006Z,1006.88
2019-05-01T10:44:28.013Z,990.00
2019-05-01T10:45:27.979Z,911.25
2019-05-01T10:46:27.989Z,770.62
2019-05-01T10:47:27.961Z,703.12
2019-05-01T10:48:27.949Z,686.25
2019-05-01T10:49:27.950Z,675.00
2019-05-01T10:50:27.927Z,826.88
2019-05-01T10:51:27.917Z,815.62
2019-05-01T10:52:27.903Z,877.50
2019-05-01T10:53:27.897Z,832.50
2019-05-01T10:54:27.902Z,916.88
2019-05-01T10:55:27.875Z,933.75
2019-05-01T10:56:27.862Z,978.75
2019-05-01T10:57:27.861Z,928.12
2019-05-01T10:58:27.839Z,950.62
2019-05-01T10:59:27.863Z,1012.50
2019-05-01T11:00:27.823Z,1018.12
2019-05-01T11:01:27.814Z,1063.12
2019-05-01T11:02:27.800Z,1057.50
2019-05-01T11:03:27.785Z,1091.25
2019-05-01T11:04:27.794Z,1040.62
2019-05-01T11:05:27.770Z,1091.25
2019-05-01T11:06:27.765Z,1147.50
2019-05-01T11:07:27.751Z,1012.50
2019-05-01T11:08:27.733Z,855.00
2019-05-01T11:09:27.741Z,787.50
2019-05-01T11:10:27.712Z,1018.12
2019-05-01T11:11:27.715Z,2176.88
2019-05-01T11:12:27.696Z,2947.50
2019-05-01T11:13:27.680Z,3273.75
2019-05-01T11:14:27.737Z,3296.25
2019-05-01T11:15:27.656Z,2165.62
2019-05-01T11:16:27.651Z,2340.00
2019-05-01T11:17:27.639Z,2171.25
2019-05-01T11:18:27.643Z,3645.00
2019-05-01T11:19:29.622Z,3414.38
2019-05-01T11:20:27.620Z,2711.25
2019-05-01T11:21:27.592Z,1726.88
2019-05-01T11:22:27.591Z,1080.00
2019-05-01T11:23:27.580Z,3915.00
2019-05-01T11:24:27.581Z,1687.50
2019-05-01T11:25:27.556Z,1479.38
2019-05-01T11:26:27.547Z,1434.38
2019-05-01T11:27:27.548Z,1366.88
2019-05-01T11:28:27.518Z,3155.62
2019-05-01T11:29:27.538Z,2671.88
2019-05-01T11:30:27.557Z,2396.25
2019-05-01T11:31:27.491Z,1316.25
2019-05-01T11:32:27.506Z,2238.75
2019-05-01T11:33:27.474Z,1327.50
2019-05-01T11:34:27.508Z,1479.38
2019-05-01T11:35:27.452Z,1400.62
2019-05-01T11:36:27.442Z,3656.25
2019-05-01T11:37:27.428Z,2008.12
2019-05-01T11:38:27.444Z,1653.75
2019-05-01T11:39:27.427Z,984.38
2019-05-01T11:40:27.395Z,2413.12
2019-05-01T11:41:27.391Z,2818.12
2019-05-01T11:42:27.372Z,3363.75
2019-05-01T11:43:27.365Z,3065.62
2019-05-01T11:44:27.377Z,1861.88
2019-05-01T11:45:27.346Z,1333.12
2019-05-01T11:46:27.339Z,3870.00
2019-05-01T11:47:27.332Z,3937.50
2019-05-01T11:48:30.289Z,3898.12
2019-05-01T11:49:27.339Z,3645.00
2019-05-01T11:50:27.287Z,2908.12
2019-05-01T11:51:27.300Z,3116.25
2019-05-01T11:52:27.281Z,3324.38
2019-05-01T11:53:27.266Z,1850.62
2019-05-01T11:54:27.258Z,2463.75
2019-05-01T11:55:27.237Z,1816.88
2019-05-01T11:56:27.243Z,3313.12
2019-05-01T11:57:27.229Z,3043.12
2019-05-01T11:58:27.208Z,3228.75
2019-05-01T11:59:27.199Z,3847.50
2019-05-01T12:00:27.187Z,4117.50
2019-05-01T12:01:27.192Z,4168.12
2019-05-01T12:02:27.164Z,3909.38
2019-05-01T12:03:27.165Z,3898.12
2019-05-01T12:04:27.149Z,3650.62
2019-05-01T12:05:27.143Z,2812.50
2019-05-01T12:06:27.153Z,3993.75
2019-05-01T12:07:27.116Z,3909.38
2019-05-01T12:08:27.123Z,2008.12
2019-05-01T12:09:27.094Z,1912.50
2019-05-01T12:10:27.086Z,2075.62
2019-05-01T12:11:27.104Z,2081.25
2019-05-01T12:12:27.063Z,3965.62
2019-05-01T12:13:27.055Z,1940.62
2019-05-01T12:14:27.077Z,1389.38
2019-05-01T12:15:27.039Z,1473.75
2019-05-01T12:16:27.033Z,1383.75
2019-05-01T12:17:27.035Z,1614.38
2019-05-01T12:18:27.032Z,2019.38
2019-05-01T12:19:27.005Z,1760.62
2019-05-01T12:20:26.985Z,1113.75
2019-05-01T12:21:26.971Z,832.50
2019-05-01T12:22:26.972Z,967.50
2019-05-01T12:23:26.962Z,1243.12
2019-05-01T12:24:26.961Z,1445.62
2019-05-01T12:25:26.948Z,1389.38
2019-05-01T12:26:26.917Z,1366.88
2019-05-01T12:27:26.938Z,1282.50
2019-05-01T12:28:26.897Z,1282.50
2019-05-01T12:29:26.911Z,1271.25
2019-05-01T12:30:26.879Z,1265.62
2019-05-01T12:31:26.899Z,1254.38
2019-05-01T12:32:26.859Z,1282.50
2019-05-01T12:33:26.862Z,1186.88
2019-05-01T12:34:26.898Z,1271.25
2019-05-01T12:35:26.832Z,1310.62
2019-05-01T12:36:35.950Z,1310.62
2019-05-01T12:37:27.830Z,1344.38
2019-05-01T12:38:26.846Z,1361.25
2019-05-01T12:39:26.810Z,1389.38
2019-05-01T12:40:26.778Z,1440.00
2019-05-01T12:41:26.790Z,1445.62
2019-05-01T12:42:26.776Z,1451.25
2019-05-01T12:43:26.773Z,1591.88
2019-05-01T12:44:26.770Z,1400.62
2019-05-01T12:45:26.740Z,1513.12
2019-05-01T12:46:26.729Z,1569.38
2019-05-01T12:47:26.725Z,1350.00